Time;durP1;ratioP1;P1;durP2;ratioP2;P2;SDS_P1;SDS_P2;PMS_P1;PMS_P2;Temp;Humidity;BMP_temperature;BMP_pressure;BME280_temperature;BME280_humidity;BME280_pressure;Samples;Min_cycle;Max_cycle;Signal;HPM_P1;HPM_P2
2023/06/29 00:02:06;;;;;;;21.20;18.23;;;21.70;98.00;;;;;;5028842;28;20014;-96
2023/06/29 00:04:41;;;;;;;19.98;17.88;;;21.60;98.00;;;;;;5012116;28;20042;-96
2023/06/29 00:07:09;;;;;;;22.95;19.70;;;21.60;98.00;;;;;;5050582;23;20130;-95
2023/06/29 00:09:38;;;;;;;21.25;18.77;;;21.50;98.10;;;;;;5039734;28;20013;-96
2023/06/29 00:12:04;;;;;;;20.42;18.23;;;21.50;98.10;;;;;;5061804;28;20111;-96
2023/06/29 00:14:40;;;;;;;21.60;18.27;;;21.50;98.10;;;;;;5043298;28;20028;-96
2023/06/29 00:17:06;;;;;;;19.88;17.77;;;21.40;98.20;;;;;;5042583;28;20044;-96
2023/06/29 00:19:35;;;;;;;21.88;18.60;;;21.40;98.20;;;;;;5061150;28;20025;-96
2023/06/29 00:22:00;;;;;;;21.15;18.75;;;21.40;98.20;;;;;;5042291;28;20488;-95
2023/06/29 00:24:29;;;;;;;23.38;19.00;;;21.40;98.20;;;;;;5056177;28;20052;-96
2023/06/29 00:26:57;;;;;;;21.23;18.95;;;21.30;98.30;;;;;;5021552;28;20025;-96
2023/06/29 00:29:27;;;;;;;19.55;17.45;;;21.30;98.30;;;;;;5038765;28;20137;-96
2023/06/29 00:31:57;;;;;;;21.27;16.63;;;21.30;98.30;;;;;;5038650;28;20040;-96
2023/06/29 00:34:30;;;;;;;;;;;21.20;98.30;;;;;;5025855;28;20113;-94
2023/06/29 00:36:58;;;;;;;20.30;18.17;;;21.20;98.30;;;;;;5063795;28;19991;-94
2023/06/29 00:39:24;;;;;;;21.48;19.17;;;21.10;98.30;;;;;;5033050;28;20515;-96
2023/06/29 00:41:59;;;;;;;20.80;18.25;;;21.10;98.30;;;;;;5039012;28;20048;-95
2023/06/29 00:44:25;;;;;;;24.83;20.35;;;21.10;98.40;;;;;;5040101;28;20028;-95
2023/06/29 00:46:55;;;;;;;21.30;18.98;;;21.00;98.40;;;;;;5044220;28;20029;-95
2023/06/29 00:49:32;;;;;;;23.33;19.38;;;21.00;98.50;;;;;;5043621;28;20111;-96
2023/06/29 00:51:59;;;;;;;20.65;18.52;;;21.00;98.60;;;;;;5050175;28;20031;-96
2023/06/29 00:54:27;;;;;;;23.80;18.27;;;20.90;98.50;;;;;;5052097;28;20022;-94
2023/06/29 00:56:58;;;;;;;21.05;18.85;;;20.90;98.60;;;;;;5049866;28;20030;-96
2023/06/29 00:59:27;;;;;;;23.10;19.63;;;20.90;98.60;;;;;;5030366;28;20033;-90
2023/06/29 01:01:53;;;;;;;23.58;19.30;;;20.90;98.70;;;;;;5038779;28;20020;-96
2023/06/29 01:04:36;;;;;;;20.83;18.20;;;20.90;98.70;;;;;;5052539;28;20017;-96
2023/06/29 01:07:13;;;;;;;22.88;19.67;;;20.90;98.80;;;;;;5071265;28;20052;-95
2023/06/29 01:09:41;;;;;;;21.27;19.05;;;20.80;98.80;;;;;;5048314;28;20057;-95
2023/06/29 01:12:10;;;;;;;22.35;19.45;;;20.80;98.90;;;;;;5080707;28;20037;-94
2023/06/29 01:14:39;;;;;;;22.92;19.98;;;20.80;98.90;;;;;;5078254;28;20029;-96
2023/06/29 01:17:07;;;;;;;22.90;20.23;;;20.80;98.90;;;;;;5058030;28;20040;-95
2023/06/29 01:19:34;;;;;;;22.92;20.45;;;20.80;99.00;;;;;;5050577;28;20041;-96
2023/06/29 01:22:08;;;;;;;23.35;20.83;;;20.80;99.00;;;;;;5053396;28;20021;-95
2023/06/29 01:24:41;;;;;;;23.35;20.45;;;20.80;99.10;;;;;;5041367;28;20533;-95
2023/06/29 01:27:08;;;;;;;22.67;20.30;;;20.70;99.10;;;;;;5025128;28;20147;-95
2023/06/29 01:29:34;;;;;;;23.83;21.25;;;20.70;99.10;;;;;;5038951;28;20087;-94
2023/06/29 01:32:03;;;;;;;23.92;21.42;;;20.70;99.10;;;;;;5032396;28;20029;-96
2023/06/29 01:34:31;;;;;;;25.33;21.05;;;20.70;99.20;;;;;;5057807;28;20028;-95
2023/06/29 01:37:08;;;;;;;25.85;22.65;;;20.70;99.20;;;;;;5040467;28;20094;-96
2023/06/29 01:40:08;;;;;;;24.20;21.67;;;20.80;99.30;;;;;;5059023;28;20036;-96
2023/06/29 01:42:35;;;;;;;24.83;21.45;;;20.80;99.30;;;;;;5036202;28;20036;-96
2023/06/29 01:45:04;;;;;;;25.27;21.45;;;20.80;99.30;;;;;;5057645;28;20013;-96
2023/06/29 01:47:31;;;;;;;24.95;21.42;;;20.80;99.40;;;;;;5040561;28;20029;-90
2023/06/29 01:50:00;;;;;;;26.88;22.63;;;20.80;99.40;;;;;;5041210;28;20087;-96
2023/06/29 01:52:28;;;;;;;25.40;22.80;;;20.80;99.50;;;;;;5024597;28;20029;-96
2023/06/29 01:54:54;;;;;;;25.17;22.45;;;20.90;99.50;;;;;;5040158;28;20482;-96
2023/06/29 01:57:23;;;;;;;24.58;22.08;;;20.90;99.50;;;;;;5039446;28;20025;-96
2023/06/29 01:59:49;;;;;;;25.70;22.90;;;20.90;99.60;;;;;;5028547;28;20115;-96
2023/06/29 02:02:14;;;;;;;26.23;23.13;;;20.90;99.60;;;;;;5059377;28;20013;-96
2023/06/29 02:04:40;;;;;;;26.02;22.75;;;21.00;99.60;;;;;;5061487;28;20021;-94
2023/06/29 02:07:06;;;;;;;26.80;22.85;;;20.90;99.60;;;;;;5061205;28;20029;-96
2023/06/29 02:09:32;;;;;;;27.02;23.45;;;20.90;99.70;;;;;;5061973;28;20005;-91
2023/06/29 02:12:00;;;;;;;24.85;22.10;;;20.90;99.70;;;;;;5062361;28;20040;-92
2023/06/29 02:14:28;;;;;;;25.55;22.70;;;20.90;99.70;;;;;;5079235;28;20029;-96
2023/06/29 02:17:01;;;;;;;24.80;22.17;;;21.00;99.70;;;;;;5096425;23;20089;-93
2023/06/29 02:19:27;;;;;;;24.92;22.30;;;21.00;99.80;;;;;;5006850;28;20027;-95
2023/06/29 02:21:53;;;;;;;24.80;22.20;;;21.00;99.90;;;;;;4964300;28;20037;-96
2023/06/29 02:24:19;;;;;;;24.38;21.80;;;21.00;99.80;;;;;;4953675;28;20026;-96
2023/06/29 02:26:45;;;;;;;24.98;22.27;;;21.00;99.80;;;;;;4981076;28;20032;-95
2023/06/29 02:29:18;;;;;;;25.67;22.98;;;21.00;99.80;;;;;;4977698;28;20030;-96
2023/06/29 02:31:43;;;;;;;24.65;22.13;;;21.00;99.80;;;;;;4971061;28;20031;-95
2023/06/29 02:34:10;;;;;;;24.45;21.92;;;21.00;99.80;;;;;;4976104;28;20104;-94
2023/06/29 02:36:39;;;;;;;25.20;22.50;;;21.10;99.90;;;;;;4985707;28;20415;-89
2023/06/29 02:39:05;;;;;;;25.67;23.13;;;21.00;99.90;;;;;;5001277;28;20022;-94
2023/06/29 02:41:33;;;;;;;24.67;22.08;;;21.10;99.90;;;;;;5010111;28;20026;-95
2023/06/29 02:44:04;;;;;;;24.98;22.33;;;21.10;99.90;;;;;;4989117;28;20034;-94
2023/06/29 02:46:32;;;;;;;27.27;22.95;;;21.10;99.90;;;;;;5008106;23;20137;-93
2023/06/29 02:48:58;;;;;;;26.00;23.20;;;21.10;99.90;;;;;;5012577;28;20030;-96
2023/06/29 02:51:26;;;;;;;26.45;23.65;;;21.10;99.90;;;;;;4988573;28;20042;-96
2023/06/29 02:53:54;;;;;;;25.35;22.38;;;21.10;99.90;;;;;;4987853;28;20086;-90
2023/06/29 02:56:23;;;;;;;26.88;23.92;;;21.10;99.90;;;;;;4987536;28;20094;-96
2023/06/29 02:58:49;;;;;;;25.67;22.98;;;21.10;99.90;;;;;;4970378;28;20114;-95
2023/06/29 03:01:15;;;;;;;27.98;23.90;;;21.20;99.90;;;;;;4970417;28;20027;-95
2023/06/29 03:03:41;;;;;;;25.67;23.13;;;21.10;99.90;;;;;;4967730;28;20031;-95
2023/06/29 03:06:11;;;;;;;27.88;24.45;;;21.20;99.90;;;;;;4992979;28;20027;-94
2023/06/29 03:08:37;;;;;;;27.80;23.38;;;21.20;99.90;;;;;;4995096;28;20018;-96
2023/06/29 03:13:31;;;;;;;27.58;23.70;;;21.20;99.90;;;;;;5016985;28;20271;-95
2023/06/29 03:15:59;;;;;;;27.48;24.17;;;21.20;99.90;;;;;;5000514;28;20037;-94
2023/06/29 03:18:25;;;;;;;26.23;23.17;;;21.20;99.90;;;;;;4995122;28;20026;-94
2023/06/29 03:20:51;;;;;;;25.65;22.85;;;21.20;99.90;;;;;;4985644;28;20542;-95
2023/06/29 03:23:17;;;;;;;27.48;23.40;;;21.20;99.90;;;;;;4982232;28;20030;-96
2023/06/29 03:25:42;;;;;;;25.88;22.63;;;21.20;99.90;;;;;;4999001;28;20084;-92
2023/06/29 03:28:08;;;;;;;27.30;24.02;;;21.20;99.90;;;;;;4982023;28;20117;-96
2023/06/29 03:30:34;;;;;;;27.45;24.13;;;21.20;99.90;;;;;;4980302;28;20022;-94
2023/06/29 03:33:01;;;;;;;28.08;24.10;;;21.20;99.90;;;;;;4997784;28;20030;-94
2023/06/29 03:35:29;;;;;;;27.20;23.95;;;21.20;99.90;;;;;;4997708;28;20019;-95
2023/06/29 03:37:55;;;;;;;26.90;23.48;;;21.20;99.90;;;;;;4963401;28;20037;-94
2023/06/29 03:40:23;;;;;;;29.50;24.95;;;21.30;99.90;;;;;;4996106;28;20035;-96
2023/06/29 03:42:49;;;;;;;28.48;24.42;;;21.30;99.90;;;;;;4979116;28;20026;-95
2023/06/29 03:45:15;;;;;;;27.80;24.90;;;21.30;99.90;;;;;;4996844;28;20499;-96
2023/06/29 03:47:41;;;;;;;27.83;24.95;;;21.30;99.90;;;;;;4963320;28;20089;-95
2023/06/29 03:50:07;;;;;;;28.73;25.63;;;21.30;99.90;;;;;;4996289;28;20384;-96
2023/06/29 03:52:33;;;;;;;32.35;26.50;;;21.30;99.90;;;;;;4995855;28;20018;-96
2023/06/29 03:54:58;;;;;;;30.30;26.08;;;21.30;99.90;;;;;;4978331;28;20091;-96
2023/06/29 03:57:24;;;;;;;28.45;25.45;;;21.30;99.90;;;;;;4978575;28;20049;-96
2023/06/29 03:59:53;;;;;;;28.30;25.23;;;21.30;99.90;;;;;;4978423;28;20014;-95
2023/06/29 04:02:18;;;;;;;29.13;24.65;;;21.40;99.90;;;;;;4996144;28;20087;-94
2023/06/29 04:04:45;;;;;;;28.67;25.23;;;21.30;99.90;;;;;;4996427;28;20026;-94
2023/06/29 04:07:11;;;;;;;28.60;25.35;;;21.30;99.90;;;;;;4996828;28;20034;-95
2023/06/29 04:09:37;;;;;;;28.10;25.00;;;21.30;99.90;;;;;;4978844;28;20031;-95
2023/06/29 04:12:03;;;;;;;27.08;23.98;;;21.30;99.90;;;;;;4995479;28;20526;-95
2023/06/29 04:14:28;;;;;;;30.00;25.15;;;21.30;99.90;;;;;;4995346;28;20445;-93
2023/06/29 04:16:54;;;;;;;26.85;24.17;;;21.40;99.90;;;;;;4979760;28;20495;-95
2023/06/29 04:19:23;;;;;;;29.65;24.83;;;21.40;99.90;;;;;;4980757;28;20108;-95
2023/06/29 04:21:48;;;;;;;26.60;23.77;;;21.40;99.90;;;;;;4982228;28;20089;-94
2023/06/29 04:24:14;;;;;;;29.33;24.08;;;21.40;99.90;;;;;;5000162;28;20026;-95
2023/06/29 04:26:41;;;;;;;26.67;23.23;;;21.40;99.90;;;;;;4982731;28;20030;-96
2023/06/29 04:29:09;;;;;;;25.67;22.92;;;21.40;99.90;;;;;;4981740;28;20025;-95
2023/06/29 04:31:35;;;;;;;26.88;22.95;;;21.40;99.90;;;;;;4982448;28;20050;-95
2023/06/29 04:34:03;;;;;;;26.80;23.83;;;21.40;99.90;;;;;;4982840;28;20033;-96
2023/06/29 04:36:30;;;;;;;27.63;24.25;;;21.50;99.90;;;;;;4982783;28;20026;-95
2023/06/29 04:38:58;;;;;;;26.80;22.73;;;21.40;99.90;;;;;;4984326;28;20034;-95
2023/06/29 04:41:33;;;;;;;26.45;23.63;;;21.40;99.90;;;;;;4982877;28;20094;-96
2023/06/29 04:44:02;;;;;;;25.80;23.05;;;21.50;99.90;;;;;;4985447;28;20058;-95
2023/06/29 04:46:37;;;;;;;25.87;22.40;;;21.50;99.90;;;;;;4986965;28;20022;-96
2023/06/29 04:49:06;;;;;;;24.15;21.60;;;21.50;99.90;;;;;;5006283;28;20026;-95
2023/06/29 04:52:00;;;;;;;25.45;22.65;;;21.50;99.90;;;;;;5004648;28;20026;-96
2023/06/29 04:54:27;;;;;;;25.38;22.55;;;21.50;99.90;;;;;;4982893;28;20030;-96
2023/06/29 04:56:53;;;;;;;24.38;21.65;;;21.50;99.90;;;;;;4998186;28;20039;-96
2023/06/29 04:59:23;;;;;;;24.70;20.17;;;21.50;99.90;;;;;;4999899;28;20018;-96
2023/06/29 05:01:49;;;;;;;24.75;21.40;;;21.60;99.90;;;;;;4999532;28;20472;-95
2023/06/29 05:04:15;;;;;;;24.10;21.10;;;21.60;99.90;;;;;;4982400;28;20022;-96
2023/06/29 05:06:41;;;;;;;24.35;20.70;;;21.60;99.90;;;;;;4982345;28;20026;-96
2023/06/29 05:09:10;;;;;;;25.20;20.83;;;21.60;99.90;;;;;;4983231;28;20388;-96
2023/06/29 05:11:35;;;;;;;23.95;20.45;;;21.60;99.90;;;;;;4996466;28;20054;-96
2023/06/29 05:14:01;;;;;;;21.92;19.63;;;21.60;99.90;;;;;;5013757;28;20081;-96
2023/06/29 05:16:27;;;;;;;24.63;20.13;;;21.60;99.90;;;;;;4999769;28;20026;-95
2023/06/29 05:18:53;;;;;;;23.13;20.55;;;21.70;99.90;;;;;;4982608;28;20027;-96
2023/06/29 05:21:19;;;;;;;25.60;21.30;;;21.60;99.90;;;;;;4996101;28;20049;-96
2023/06/29 05:23:47;;;;;;;24.65;20.60;;;21.70;99.90;;;;;;4993085;28;20073;-94
2023/06/29 05:26:13;;;;;;;25.25;20.52;;;21.70;99.90;;;;;;4988649;28;20031;-95
2023/06/29 05:28:39;;;;;;;23.13;19.70;;;21.70;99.90;;;;;;5002008;28;20044;-95
2023/06/29 05:31:08;;;;;;;23.67;20.25;;;21.70;99.90;;;;;;4983901;28;20027;-96
2023/06/29 05:33:34;;;;;;;23.02;20.13;;;21.70;99.90;;;;;;4980743;28;20026;-95
2023/06/29 05:36:00;;;;;;;26.63;20.85;;;21.80;99.90;;;;;;4980796;28;20113;-94
2023/06/29 05:38:29;;;;;;;21.92;19.38;;;21.80;99.90;;;;;;4981423;28;20066;-95
2023/06/29 05:40:55;;;;;;;23.27;19.50;;;21.80;99.90;;;;;;4998524;28;20029;-94
2023/06/29 05:43:27;;;;;;;23.70;20.55;;;21.80;99.90;;;;;;4964615;28;20039;-96
2023/06/29 05:45:53;;;;;;;22.45;19.85;;;21.80;99.90;;;;;;4998114;28;20038;-95
2023/06/29 05:48:18;;;;;;;24.17;20.38;;;21.80;99.90;;;;;;4964862;28;20380;-95
2023/06/29 05:50:44;;;;;;;23.45;19.88;;;21.90;99.80;;;;;;4965023;28;20046;-95
2023/06/29 05:53:12;;;;;;;21.92;19.52;;;21.90;99.80;;;;;;4980461;28;20029;-95
2023/06/29 05:55:38;;;;;;;23.55;20.55;;;21.90;99.80;;;;;;4964940;28;20041;-95
2023/06/29 05:58:04;;;;;;;22.80;20.33;;;21.90;99.80;;;;;;4981444;28;20042;-96
2023/06/29 06:00:29;;;;;;;21.85;19.27;;;22.00;99.90;;;;;;4964473;28;20031;-95
2023/06/29 06:02:55;;;;;;;22.52;19.92;;;22.00;99.80;;;;;;4964470;28;20070;-96
2023/06/29 06:05:21;;;;;;;22.75;19.88;;;22.10;99.80;;;;;;4948876;28;20054;-96
2023/06/29 06:07:46;;;;;;;22.20;19.80;;;22.10;99.80;;;;;;4980966;28;20072;-95
2023/06/29 06:10:12;;;;;;;24.73;20.35;;;22.10;99.70;;;;;;4997285;28;20030;-93
2023/06/29 06:12:38;;;;;;;22.85;20.13;;;22.20;99.70;;;;;;4980648;28;20476;-94
2023/06/29 06:15:05;;;;;;;23.80;19.88;;;22.20;99.70;;;;;;4997423;28;20081;-95
2023/06/29 06:17:31;;;;;;;27.00;20.33;;;22.20;99.60;;;;;;4997047;28;20038;-94
2023/06/29 06:19:57;;;;;;;25.55;20.25;;;22.20;99.60;;;;;;4996243;28;20101;-96
2023/06/29 06:22:23;;;;;;;23.55;19.85;;;22.30;99.60;;;;;;4990325;28;20034;-95
2023/06/29 06:24:48;;;;;;;24.38;19.50;;;22.30;99.60;;;;;;4979874;28;20033;-96
2023/06/29 06:27:14;;;;;;;22.63;19.33;;;22.30;99.50;;;;;;4979947;28;20065;-95
2023/06/29 06:29:40;;;;;;;24.10;19.73;;;22.30;99.50;;;;;;4980062;28;20046;-95
2023/06/29 06:32:06;;;;;;;23.70;20.50;;;22.40;99.50;;;;;;4996770;28;20080;-95
2023/06/29 06:34:34;;;;;;;22.05;19.33;;;22.40;99.40;;;;;;4979380;28;20034;-95
2023/06/29 06:37:00;;;;;;;22.88;19.25;;;22.40;99.30;;;;;;4996991;28;20033;-95
2023/06/29 06:39:26;;;;;;;23.73;19.98;;;22.40;99.30;;;;;;4980628;28;20031;-96
2023/06/29 06:41:55;;;;;;;22.42;19.42;;;22.40;99.20;;;;;;4999856;28;20022;-96
2023/06/29 06:44:21;;;;;;;24.52;19.40;;;22.40;99.20;;;;;;4997486;28;20033;-95
2023/06/29 06:46:47;;;;;;;22.23;19.20;;;22.40;99.20;;;;;;4979740;28;20109;-95
2023/06/29 06:49:15;;;;;;;27.13;19.83;;;22.40;99.20;;;;;;4999308;28;20022;-95
2023/06/29 06:51:43;;;;;;;23.85;19.52;;;22.40;99.10;;;;;;4983064;28;20038;-95
2023/06/29 06:54:09;;;;;;;22.17;18.95;;;22.40;99.10;;;;;;5000325;28;20033;-95
2023/06/29 06:56:34;;;;;;;22.20;17.75;;;22.50;99.10;;;;;;4966541;28;20035;-96
2023/06/29 06:59:03;;;;;;;21.40;18.42;;;22.50;99.00;;;;;;4998472;28;20029;-96
2023/06/29 07:01:28;;;;;;;23.52;18.67;;;22.50;99.00;;;;;;4980463;28;20037;-96
2023/06/29 07:03:54;;;;;;;20.77;18.55;;;22.50;98.80;;;;;;4981659;28;20026;-95
2023/06/29 07:06:23;;;;;;;25.65;20.40;;;22.50;98.80;;;;;;4980865;28;20026;-94
2023/06/29 07:08:48;;;;;;;22.63;18.92;;;22.60;98.70;;;;;;4983634;28;20061;-96
2023/06/29 07:11:14;;;;;;;20.88;17.92;;;22.60;98.60;;;;;;4984077;28;20019;-96
2023/06/29 07:13:40;;;;;;;22.70;18.38;;;22.60;98.60;;;;;;4998683;28;20034;-96
2023/06/29 07:16:08;;;;;;;20.88;17.95;;;22.60;98.60;;;;;;5001916;28;20046;-96
2023/06/29 07:18:37;;;;;;;21.48;19.17;;;22.60;98.60;;;;;;5001573;28;20026;-95
2023/06/29 07:21:05;;;;;;;24.73;20.92;;;22.70;98.50;;;;;;4994630;28;20023;-95
2023/06/29 07:23:31;;;;;;;21.83;19.30;;;22.70;98.40;;;;;;5003517;28;20038;-95
2023/06/29 07:25:57;;;;;;;23.30;19.40;;;22.70;98.30;;;;;;4964714;28;20117;-96
2023/06/29 07:28:23;;;;;;;22.45;19.60;;;22.70;98.30;;;;;;4997736;28;20084;-96
2023/06/29 07:30:50;;;;;;;21.35;19.05;;;22.80;98.30;;;;;;4980400;28;20037;-95
2023/06/29 07:33:16;;;;;;;23.98;20.45;;;22.80;98.20;;;;;;4983622;28;20471;-96
2023/06/29 07:35:46;;;;;;;21.77;18.92;;;22.80;98.00;;;;;;4982980;28;20046;-94
2023/06/29 07:38:14;;;;;;;21.80;18.38;;;22.80;98.00;;;;;;4987734;28;20137;-95
2023/06/29 07:40:40;;;;;;;22.55;18.35;;;22.80;98.00;;;;;;4994907;28;20033;-96
2023/06/29 07:43:09;;;;;;;21.27;18.45;;;22.90;98.00;;;;;;4964260;28;20026;-95
2023/06/29 07:45:35;;;;;;;20.85;18.02;;;22.90;98.00;;;;;;4981850;28;20472;-96
2023/06/29 07:48:01;;;;;;;18.67;16.63;;;22.90;98.00;;;;;;4980324;28;20026;-96
2023/06/29 07:50:30;;;;;;;21.75;17.95;;;22.90;98.00;;;;;;4980885;28;20026;-96
2023/06/29 07:52:56;;;;;;;22.25;17.83;;;23.00;97.90;;;;;;4981111;28;20053;-95
2023/06/29 07:55:21;;;;;;;18.55;16.55;;;23.00;97.70;;;;;;4978814;28;20471;-96
2023/06/29 07:57:47;;;;;;;18.20;16.15;;;23.00;97.70;;;;;;4996896;28;20034;-96
2023/06/29 08:00:16;;;;;;;18.58;15.88;;;23.10;97.70;;;;;;5003379;28;20019;-93
2023/06/29 08:02:55;;;;;;;19.70;17.25;;;23.00;97.50;;;;;;5006430;28;20053;-96
2023/06/29 08:05:31;;;;;;;20.83;16.90;;;23.10;97.40;;;;;;5009531;28;20026;-96
2023/06/29 08:07:57;;;;;;;18.88;16.05;;;23.10;97.40;;;;;;5163205;23;20065;-96
2023/06/29 08:10:39;;;;;;;18.33;14.70;;;23.10;97.30;;;;;;5103939;23;20080;-89
2023/06/29 08:13:15;;;;;;;18.05;16.02;;;23.20;97.30;;;;;;5074398;23;20120;-96
2023/06/29 08:15:41;;;;;;;19.10;16.42;;;23.20;97.20;;;;;;5072559;28;20031;-96
2023/06/29 08:18:09;;;;;;;19.90;15.93;;;23.20;97.10;;;;;;5047125;28;20044;-96
2023/06/29 08:20:50;;;;;;;17.25;15.40;;;23.30;97.10;;;;;;5042034;28;20029;-96
2023/06/29 08:23:16;;;;;;;18.95;16.25;;;23.30;96.80;;;;;;5048629;28;20466;-95
2023/06/29 08:25:45;;;;;;;18.92;15.35;;;23.40;96.80;;;;;;5041249;28;20021;-95
2023/06/29 08:28:13;;;;;;;19.50;15.15;;;23.40;96.70;;;;;;5059365;28;20033;-95
2023/06/29 08:30:39;;;;;;;17.15;15.20;;;23.50;96.70;;;;;;5054285;28;20039;-95
2023/06/29 08:33:05;;;;;;;19.40;15.77;;;23.60;96.70;;;;;;5039500;28;20111;-95
2023/06/29 08:35:31;;;;;;;17.27;15.45;;;23.70;96.60;;;;;;5022114;28;20027;-94
2023/06/29 08:37:57;;;;;;;18.98;16.65;;;23.70;96.40;;;;;;5039969;28;20088;-95
2023/06/29 08:40:25;;;;;;;17.92;14.73;;;23.80;96.10;;;;;;5056860;28;20025;-95
2023/06/29 08:42:51;;;;;;;17.33;15.50;;;23.80;96.10;;;;;;5041114;28;20108;-94
2023/06/29 08:45:18;;;;;;;18.02;14.57;;;23.90;96.00;;;;;;5042549;28;20047;-91
2023/06/29 08:47:51;;;;;;;15.95;14.25;;;23.90;96.00;;;;;;5043198;28;20028;-96
2023/06/29 08:51:02;;;;;;;18.85;14.80;;;24.10;95.90;;;;;;5059243;23;20049;-94
2023/06/29 08:53:32;;;;;;;18.80;15.73;;;24.10;95.70;;;;;;5030615;28;20026;-95
2023/06/29 08:56:15;;;;;;;16.42;14.43;;;24.20;95.60;;;;;;5015044;28;20030;-96
2023/06/29 08:58:42;;;;;;;18.63;15.70;;;24.20;95.50;;;;;;4997130;28;20049;-95
2023/06/29 09:03:45;;;;;;;18.38;15.90;;;24.30;95.30;;;;;;5052152;23;20526;-96
2023/06/29 09:06:14;;;;;;;17.70;15.57;;;24.30;95.10;;;;;;5047360;28;20037;-95
2023/06/29 09:08:40;;;;;;;17.85;15.82;;;24.30;95.00;;;;;;5039524;28;20029;-95
2023/06/29 09:11:05;;;;;;;18.13;15.95;;;24.30;95.00;;;;;;5020161;28;20013;-90
2023/06/29 09:13:33;;;;;;;17.75;15.88;;;24.40;95.10;;;;;;5020675;28;20033;-91
2023/06/29 09:16:00;;;;;;;22.38;18.27;;;24.40;94.90;;;;;;5006875;28;20687;-89
2023/06/29 09:18:34;;;;;;;18.63;15.98;;;24.50;94.80;;;;;;5024218;28;20045;-90
2023/06/29 09:21:02;;;;;;;19.85;16.55;;;24.40;94.80;;;;;;5059160;28;20030;-94
2023/06/29 09:23:31;;;;;;;22.90;16.90;;;24.50;94.90;;;;;;5033486;28;20125;-95
2023/06/29 09:25:57;;;;;;;19.63;16.67;;;24.50;94.90;;;;;;5022310;28;20013;-95
2023/06/29 09:28:24;;;;;;;18.30;16.20;;;24.60;94.80;;;;;;5022002;28;20030;-89
2023/06/29 09:30:52;;;;;;;19.05;15.70;;;24.60;94.80;;;;;;5020439;28;20026;-95
2023/06/29 09:33:19;;;;;;;17.95;16.05;;;24.70;94.80;;;;;;5020526;28;20037;-96
2023/06/29 09:35:53;;;;;;;17.27;15.43;;;24.70;94.60;;;;;;5019528;28;20017;-96
2023/06/29 09:38:20;;;;;;;17.02;14.93;;;24.80;94.50;;;;;;5020105;28;20549;-96
2023/06/29 09:40:53;;;;;;;18.17;15.85;;;24.90;94.30;;;;;;5018808;28;20025;-95
2023/06/29 09:43:27;;;;;;;17.77;15.52;;;24.90;93.90;;;;;;5038986;28;20080;-95
2023/06/29 09:46:10;;;;;;;17.00;14.95;;;24.90;93.70;;;;;;5020634;28;20172;-95
2023/06/29 09:48:46;;;;;;;17.17;15.05;;;24.90;93.70;;;;;;5020671;28;20499;-96
2023/06/29 09:51:21;;;;;;;16.08;14.05;;;25.00;93.70;;;;;;5020289;28;20021;-95
2023/06/29 09:53:48;;;;;;;19.05;14.90;;;25.00;93.70;;;;;;5036234;28;20021;-95
2023/06/29 09:56:18;;;;;;;16.10;14.43;;;25.10;93.60;;;;;;5035467;28;20032;-95
2023/06/29 09:58:45;;;;;;;;;;;25.10;93.60;;;;;;5038318;28;20030;-94
2023/06/29 10:01:11;;;;;;;17.60;15.52;;;25.20;93.60;;;;;;5039168;28;19912;-94
2023/06/29 10:03:37;;;;;;;18.48;16.40;;;25.20;93.50;;;;;;5041257;28;20049;-95
2023/06/29 10:06:13;;;;;;;20.02;15.77;;;25.30;93.50;;;;;;5021124;28;20064;-94
2023/06/29 10:08:40;;;;;;;19.25;15.45;;;25.30;93.40;;;;;;5000134;28;20039;-94
2023/06/29 10:11:11;;;;;;;16.40;14.70;;;25.30;93.30;;;;;;5003093;28;20074;-95
2023/06/29 10:14:03;;;;;;;;;;;25.40;93.30;;;;;;5020023;28;20025;-95
2023/06/29 10:16:42;;;;;;;17.42;15.27;;;25.40;93.30;;;;;;5022724;28;19924;-92
2023/06/29 10:19:22;;;;;;;18.90;15.07;;;25.40;93.30;;;;;;5019076;28;20040;-92
2023/06/29 10:21:57;;;;;;;18.00;16.00;;;25.50;93.20;;;;;;5028638;28;20018;-96
2023/06/29 10:24:29;;;;;;;18.30;15.68;;;25.50;93.00;;;;;;5023309;28;20064;-95
2023/06/29 10:26:57;;;;;;;18.48;16.25;;;25.50;93.00;;;;;;5033655;28;20025;-95
2023/06/29 10:29:27;;;;;;;19.38;17.15;;;25.40;92.70;;;;;;5035832;28;20033;-91
2023/06/29 10:32:00;;;;;;;18.90;16.67;;;25.50;92.70;;;;;;5035088;28;20033;-91
2023/06/29 10:34:37;;;;;;;17.27;15.48;;;25.40;92.60;;;;;;5017916;28;20025;-92
2023/06/29 10:37:07;;;;;;;17.77;15.55;;;25.40;92.70;;;;;;5013786;28;20043;-90
2023/06/29 10:40:01;;;;;;;;;;;;;;;;;;;;;
2023/06/29 10:42:34;;;;;;;17.40;15.30;;;25.50;92.80;;;;;;5035425;28;20033;-91
2023/06/29 10:45:03;;;;;;;18.05;15.63;;;25.50;92.80;;;;;;5018199;28;20034;-91
2023/06/29 10:50:21;;;;;;;23.45;15.45;;;25.70;92.60;;;;;;5036427;28;20475;-91
2023/06/29 10:52:52;;;;;;;15.50;13.90;;;25.70;92.50;;;;;;5024520;28;20025;-94
2023/06/29 10:55:37;;;;;;;16.17;14.48;;;25.70;92.30;;;;;;5002516;28;20026;-91
2023/06/29 10:58:36;;;;;;;16.55;13.15;;;25.70;92.30;;;;;;5003567;28;20030;-91
2023/06/29 11:01:21;;;;;;;15.52;13.48;;;25.80;92.20;;;;;;5025574;28;20479;-94
2023/06/29 11:03:47;;;;;;;15.82;14.13;;;25.80;91.90;;;;;;5011029;28;20133;-92
2023/06/29 11:09:14;;;;;;;15.93;14.20;;;25.70;91.20;;;;;;5020920;28;20052;-94
2023/06/29 11:11:47;;;;;;;15.05;13.43;;;25.70;91.10;;;;;;4998398;28;20058;-91
2023/06/29 11:14:23;;;;;;;15.60;13.40;;;25.70;91.10;;;;;;5018855;28;20022;-93
2023/06/29 11:17:04;;;;;;;;;;;;;;;;;;;;;
2023/06/29 11:19:50;;;;;;;15.82;13.95;;;25.70;91.10;;;;;;5035620;28;20025;-93
2023/06/29 11:22:44;;;;;;;15.38;13.63;;;25.70;90.90;;;;;;5019495;28;20087;-94
2023/06/29 11:25:15;;;;;;;15.10;13.27;;;25.70;90.90;;;;;;5025205;28;20056;-92
2023/06/29 11:27:47;;;;;;;17.42;14.68;;;25.70;90.80;;;;;;5039790;28;20009;-90
2023/06/29 11:30:15;;;;;;;14.98;12.93;;;25.70;90.80;;;;;;5038500;28;20097;-92
2023/06/29 11:32:50;;;;;;;16.38;14.18;;;25.70;90.90;;;;;;5042879;28;20033;-93
2023/06/29 11:35:22;;;;;;;16.17;14.43;;;25.70;90.90;;;;;;5023917;28;20040;-94
2023/06/29 11:38:00;;;;;;;15.85;14.13;;;25.80;91.00;;;;;;5019508;28;20037;-94
2023/06/29 11:40:27;;;;;;;16.23;14.43;;;25.90;91.00;;;;;;5020782;28;20052;-91
2023/06/29 11:43:03;;;;;;;17.00;14.18;;;25.90;91.00;;;;;;5034702;28;20013;-93
2023/06/29 11:45:41;;;;;;;17.02;14.95;;;25.90;91.00;;;;;;5018280;28;20033;-91
2023/06/29 11:48:08;;;;;;;17.33;15.38;;;25.90;91.00;;;;;;5003631;28;20049;-94
2023/06/29 11:50:41;;;;;;;20.20;16.95;;;25.90;90.90;;;;;;5016756;28;20086;-90
2023/06/29 11:53:10;;;;;;;17.75;15.80;;;25.90;90.60;;;;;;5014378;28;20105;-91
2023/06/29 11:55:46;;;;;;;;;;;;;;;;;;;;;
2023/06/29 11:58:13;;;;;;;17.52;15.52;;;25.90;90.50;;;;;;5034204;28;20037;-94
2023/06/29 12:00:50;;;;;;;17.77;15.93;;;26.00;90.60;;;;;;5017886;28;20052;-91
2023/06/29 12:03:25;;;;;;;17.05;15.25;;;26.00;90.40;;;;;;4991619;28;20053;-91
2023/06/29 12:05:57;;;;;;;19.15;15.60;;;26.10;90.50;;;;;;5016898;28;20026;-91
2023/06/29 12:08:25;;;;;;;19.10;16.10;;;26.10;90.40;;;;;;5018175;28;20048;-95
2023/06/29 12:10:54;;;;;;;17.77;15.32;;;26.20;90.30;;;;;;5034249;28;20043;-95
2023/06/29 12:13:21;;;;;;;18.70;15.98;;;26.20;90.30;;;;;;5018838;28;20022;-94
2023/06/29 12:15:49;;;;;;;17.50;15.63;;;26.20;90.20;;;;;;5018245;28;20018;-91
2023/06/29 12:18:18;;;;;;;18.45;16.10;;;26.20;90.10;;;;;;5002780;28;20038;-94
2023/06/29 12:20:53;;;;;;;18.83;15.60;;;26.20;90.10;;;;;;5018847;28;20021;-95
2023/06/29 12:23:21;;;;;;;20.33;16.92;;;26.20;90.00;;;;;;5006268;28;20145;-95
2023/06/29 12:25:55;;;;;;;20.63;16.75;;;26.20;90.00;;;;;;5012308;28;20104;-93
2023/06/29 12:28:23;;;;;;;19.98;17.83;;;26.20;90.00;;;;;;5014384;28;20121;-94
2023/06/29 12:30:51;;;;;;;19.80;17.50;;;26.20;89.80;;;;;;5017787;28;20025;-92
2023/06/29 12:33:17;;;;;;;21.27;18.42;;;26.20;90.00;;;;;;5021033;28;20021;-96
2023/06/29 12:35:49;;;;;;;19.25;16.85;;;26.20;89.50;;;;;;5021994;28;20100;-94
2023/06/29 12:38:20;;;;;;;20.35;18.00;;;26.20;89.60;;;;;;5034537;28;20052;-95
2023/06/29 12:40:56;;;;;;;20.30;18.17;;;26.20;89.70;;;;;;5017385;28;20104;-95
2023/06/29 12:43:24;;;;;;;21.40;18.90;;;26.20;89.80;;;;;;5021302;28;20357;-96
2023/06/29 12:45:52;;;;;;;20.42;18.20;;;26.20;89.60;;;;;;5035799;28;20081;-92
2023/06/29 12:48:18;;;;;;;22.23;18.98;;;26.20;89.30;;;;;;5035000;28;20025;-92
2023/06/29 12:50:47;;;;;;;20.40;18.30;;;26.20;89.60;;;;;;5017792;28;20097;-94
2023/06/29 12:53:15;;;;;;;21.52;19.23;;;26.20;89.60;;;;;;5018670;28;20029;-93